createdAt,value
2022-10-12T00:03:46.118Z,6.15
2022-10-12T00:07:49.100Z,6.72
2022-10-12T00:11:52.613Z,5.95
2022-10-12T00:15:55.819Z,5.82
2022-10-12T00:20:01.165Z,5.70
2022-10-12T00:24:04.842Z,6.47
2022-10-12T00:28:09.005Z,6.93
2022-10-12T00:32:12.575Z,5.68
2022-10-12T00:36:19.926Z,6.47
2022-10-12T00:40:23.294Z,6.85
2022-10-12T00:44:37.849Z,5.80
2022-10-12T00:48:42.912Z,6.68
2022-10-12T00:52:53.735Z,7.45
2022-10-12T00:56:59.257Z,7.60
2022-10-12T01:01:03.558Z,6.65
2022-10-12T01:05:07.787Z,7.22
2022-10-12T01:09:12.570Z,7.82
2022-10-12T01:13:15.968Z,7.43
2022-10-12T01:17:32.608Z,7.80
2022-10-12T01:21:41.792Z,8.13
2022-10-12T01:26:06.864Z,7.25
2022-10-12T01:30:15.570Z,6.97
2022-10-12T01:34:29.436Z,7.55
2022-10-12T01:38:47.864Z,8.18
2022-10-12T01:42:51.881Z,8.68
2022-10-12T01:46:59.399Z,7.18
2022-10-12T01:51:04.608Z,6.90
2022-10-12T01:55:21.380Z,7.90
2022-10-12T01:59:33.692Z,7.60
2022-10-12T02:03:45.851Z,7.60
2022-10-12T02:07:53.250Z,7.57
2022-10-12T02:12:02.493Z,8.13
2022-10-12T02:16:09.969Z,8.25
2022-10-12T02:24:25.634Z,7.80
2022-10-12T02:28:32.295Z,6.95
2022-10-12T02:32:39.761Z,7.18
2022-10-12T02:36:51.445Z,8.40
2022-10-12T02:41:00.387Z,7.90
2022-10-12T02:45:08.279Z,7.70
2022-10-12T02:49:13.456Z,7.40
2022-10-12T02:53:18.149Z,8.48
2022-10-12T02:57:23.218Z,8.85
2022-10-12T03:01:26.219Z,8.40
2022-10-12T03:05:29.738Z,7.97
2022-10-12T03:09:33.194Z,8.77
2022-10-12T03:13:37.719Z,9.18
2022-10-12T03:17:41.094Z,10.85
2022-10-12T03:21:44.542Z,10.07
2022-10-12T03:25:47.583Z,10.13
2022-10-12T03:29:52.587Z,9.75
2022-10-12T03:33:56.234Z,10.20
2022-10-12T03:37:59.232Z,9.25
2022-10-12T03:42:02.639Z,10.63
2022-10-12T03:46:07.772Z,9.63
2022-10-12T03:50:11.204Z,9.32
2022-10-12T03:54:14.865Z,10.95
2022-10-12T03:58:19.314Z,9.38
2022-10-12T04:02:24.377Z,11.05
2022-10-12T04:06:27.952Z,9.85
2022-10-12T04:10:31.045Z,9.30
2022-10-12T04:14:34.569Z,9.18
2022-10-12T04:18:39.549Z,9.95
2022-10-12T04:22:43.034Z,9.52
2022-10-12T04:26:46.447Z,9.93
2022-10-12T04:30:49.484Z,9.82
2022-10-12T04:34:54.632Z,10.43
2022-10-12T04:39:00.961Z,9.63
2022-10-12T04:43:04.874Z,9.75
2022-10-12T04:47:08.781Z,10.15
2022-10-12T04:51:13.221Z,9.30
2022-10-12T04:55:17.008Z,8.50
2022-10-12T04:59:20.475Z,9.23
2022-10-12T05:03:24.263Z,9.43
2022-10-12T05:07:29.222Z,9.77
2022-10-12T05:11:32.186Z,8.65
2022-10-12T05:15:35.694Z,8.75
2022-10-12T05:19:39.873Z,8.48
2022-10-12T05:23:44.879Z,9.05
2022-10-12T05:27:48.274Z,10.00
2022-10-12T05:31:51.218Z,8.38
2022-10-12T05:35:56.512Z,8.50
2022-10-12T05:40:01.854Z,7.90
2022-10-12T05:44:05.524Z,7.18
2022-10-12T05:48:08.491Z,9.05
2022-10-12T05:52:12.127Z,7.65
2022-10-12T05:56:16.983Z,9.77
2022-10-12T06:00:20.554Z,8.27
2022-10-12T06:04:24.394Z,8.02
2022-10-12T06:08:27.370Z,8.68
2022-10-12T06:12:32.501Z,8.52
2022-10-12T06:16:36.128Z,8.25
2022-10-12T06:20:39.893Z,8.63
2022-10-12T06:24:42.902Z,8.43
2022-10-12T06:28:47.422Z,9.57
2022-10-12T06:32:51.180Z,8.40
2022-10-12T06:36:57.124Z,7.65
2022-10-12T06:41:04.550Z,7.57
2022-10-12T06:45:10.347Z,7.75
2022-10-12T06:49:13.700Z,6.95
2022-10-12T06:53:17.319Z,7.68
2022-10-12T07:06:09.426Z,6.45
2022-10-12T07:10:13.474Z,7.43
2022-10-12T07:14:17.376Z,6.85
2022-10-12T07:18:21.871Z,6.93
2022-10-12T07:22:24.890Z,6.20
2022-10-12T07:26:28.431Z,6.88
2022-10-12T07:30:31.936Z,6.25
2022-10-12T07:34:36.824Z,6.28
2022-10-12T07:38:40.257Z,5.30
2022-10-12T07:43:05.483Z,5.47
2022-10-12T07:47:07.570Z,5.05
2022-10-12T07:51:12.338Z,5.57
2022-10-12T07:55:15.493Z,4.45
2022-10-12T07:59:18.953Z,6.03
2022-10-12T08:03:22.531Z,4.85
2022-10-12T08:07:27.080Z,5.25
2022-10-12T08:11:31.238Z,5.72
2022-10-12T08:15:34.577Z,5.03
2022-10-12T08:19:38.497Z,4.45
2022-10-12T08:23:44.671Z,5.20
2022-10-12T08:27:49.826Z,5.03
2022-10-12T08:31:55.149Z,4.63
2022-10-12T08:35:59.180Z,5.18
2022-10-12T08:40:04.246Z,4.15
2022-10-12T08:44:34.297Z,4.72
2022-10-12T08:48:52.122Z,5.30
2022-10-12T08:53:00.021Z,5.13
2022-10-12T08:57:05.262Z,3.47
2022-10-12T09:01:19.647Z,4.35
2022-10-12T09:05:30.845Z,3.85
2022-10-12T09:09:44.538Z,4.28
2022-10-12T09:13:59.004Z,4.50
2022-10-12T09:18:04.081Z,4.60
2022-10-12T09:22:16.267Z,4.88
2022-10-12T09:26:22.581Z,4.40
2022-10-12T09:30:27.529Z,4.72
2022-10-12T09:34:31.077Z,5.05
2022-10-12T09:38:34.210Z,4.10
2022-10-12T09:42:38.108Z,4.40
2022-10-12T09:46:47.033Z,4.35
2022-10-12T09:50:53.323Z,4.13
2022-10-12T09:55:02.619Z,3.90
2022-10-12T09:59:19.345Z,4.13
2022-10-12T10:03:30.832Z,3.22
2022-10-12T10:07:36.173Z,3.60
2022-10-12T10:11:40.183Z,4.47
2022-10-12T10:15:46.726Z,4.60
2022-10-12T10:19:54.617Z,4.03
2022-10-12T10:24:00.329Z,4.43
2022-10-12T10:28:23.050Z,3.38
2022-10-12T10:32:29.571Z,4.57
2022-10-12T10:36:39.342Z,4.45
2022-10-12T10:40:42.568Z,3.45
2022-10-12T10:44:51.092Z,4.18
2022-10-12T10:48:58.829Z,4.75
2022-10-12T10:53:06.798Z,3.75
2022-10-12T10:57:14.827Z,3.78
2022-10-12T11:01:24.356Z,4.88
2022-10-12T11:05:30.837Z,3.78
2022-10-12T11:09:43.086Z,3.70
2022-10-12T11:13:55.548Z,4.60
2022-10-12T11:18:05.512Z,4.50
2022-10-12T11:22:15.071Z,3.55
2022-10-12T11:26:26.112Z,3.83
2022-10-12T11:30:41.296Z,4.25
2022-10-12T11:34:51.871Z,4.28
2022-10-12T11:39:05.898Z,4.03
2022-10-12T11:43:21.254Z,4.78
2022-10-12T11:47:37.099Z,4.18
2022-10-12T11:51:40.567Z,5.75
2022-10-12T11:55:56.470Z,5.28
2022-10-12T12:00:05.210Z,4.28
2022-10-12T12:04:41.052Z,5.50
2022-10-12T12:09:19.560Z,4.43
2022-10-12T12:13:27.552Z,5.25
2022-10-12T12:17:33.797Z,5.32
2022-10-12T12:22:09.820Z,4.43
2022-10-12T12:26:18.585Z,5.60
2022-10-12T12:30:29.683Z,5.63
2022-10-12T12:34:34.582Z,5.82
2022-10-12T12:38:40.433Z,4.65
2022-10-12T12:42:43.743Z,5.18
2022-10-12T12:47:44.985Z,5.90
2022-10-12T12:51:45.704Z,6.00
2022-10-12T12:56:04.056Z,6.50
2022-10-12T13:00:22.469Z,6.18
2022-10-12T13:04:45.965Z,6.28
2022-10-12T13:09:07.491Z,6.00
2022-10-12T13:13:30.411Z,5.03
2022-10-12T13:17:55.948Z,5.18
2022-10-12T13:22:03.679Z,6.80
2022-10-12T13:26:11.666Z,5.45
2022-10-12T13:30:21.282Z,6.60
2022-10-12T13:34:29.133Z,5.82
2022-10-12T13:38:33.117Z,6.20
2022-10-12T13:42:37.578Z,5.78
2022-10-12T13:46:44.439Z,6.43
2022-10-12T13:50:56.684Z,6.07
2022-10-12T13:55:00.527Z,5.57
2022-10-12T13:59:10.583Z,6.50
2022-10-12T14:03:15.034Z,6.93
2022-10-12T14:07:23.190Z,5.60
2022-10-12T14:11:28.220Z,5.78
2022-10-12T14:15:37.031Z,6.22
2022-10-12T14:19:47.330Z,5.80
2022-10-12T14:23:53.022Z,5.05
2022-10-12T14:27:58.232Z,4.88
2022-10-12T14:32:05.595Z,5.70
2022-10-12T14:36:17.599Z,5.85
2022-10-12T14:40:36.744Z,5.97
2022-10-12T14:44:44.482Z,5.65
2022-10-12T14:48:49.095Z,6.28
2022-10-12T14:52:55.419Z,4.97
2022-10-12T14:57:02.822Z,5.03
2022-10-12T15:01:06.387Z,4.43
2022-10-12T15:05:13.856Z,4.93
2022-10-12T15:09:17.540Z,4.88
2022-10-12T15:13:20.948Z,4.65
2022-10-12T15:17:24.216Z,4.38
2022-10-12T15:21:29.158Z,4.82
2022-10-12T15:25:41.509Z,4.43
2022-10-12T15:29:46.150Z,5.47
2022-10-12T15:33:50.852Z,4.47
2022-10-12T15:37:56.847Z,4.72
2022-10-12T15:42:00.414Z,5.65
2022-10-12T15:46:03.996Z,4.40
2022-10-12T15:50:08.258Z,5.40
2022-10-12T15:54:15.101Z,5.88
2022-10-12T15:58:18.191Z,5.35
2022-10-12T16:02:24.029Z,6.47
2022-10-12T16:06:27.498Z,6.47
2022-10-12T16:10:34.425Z,5.20
2022-10-12T16:14:37.845Z,6.18
2022-10-12T16:18:40.794Z,5.57
2022-10-12T16:22:44.679Z,5.72
2022-10-12T16:26:50.134Z,5.43
2022-10-12T16:30:54.252Z,5.10
2022-10-12T16:34:57.349Z,4.82
2022-10-12T16:39:01.199Z,5.07
2022-10-12T16:43:06.118Z,4.57
2022-10-12T16:47:09.378Z,4.95
2022-10-12T16:51:14.789Z,5.13
2022-10-12T16:55:18.305Z,4.97
2022-10-12T16:59:23.325Z,4.95
2022-10-12T17:03:27.166Z,5.35
2022-10-12T17:07:30.701Z,5.30
2022-10-12T17:11:36.773Z,4.53
2022-10-12T17:15:43.254Z,5.20
2022-10-12T17:19:47.045Z,4.65
2022-10-12T17:23:50.535Z,4.72
2022-10-12T17:27:54.098Z,4.53
2022-10-12T17:31:59.576Z,4.53
2022-10-12T17:36:07.801Z,4.10
2022-10-12T17:40:12.017Z,4.90
2022-10-12T17:44:15.669Z,5.63
2022-10-12T17:48:20.780Z,4.72
2022-10-12T17:52:24.265Z,5.55
2022-10-12T17:56:27.453Z,5.18
2022-10-12T18:00:30.902Z,4.50
2022-10-12T18:04:35.893Z,4.78
2022-10-12T18:08:39.180Z,4.20
2022-10-12T18:12:42.719Z,3.92
2022-10-12T18:16:46.242Z,4.45
2022-10-12T18:20:51.467Z,5.25
2022-10-12T18:24:54.795Z,4.40
2022-10-12T18:29:01.886Z,5.28
2022-10-12T18:33:06.489Z,5.07
2022-10-12T18:37:10.961Z,5.00
2022-10-12T18:41:17.306Z,4.30
2022-10-12T18:45:20.827Z,4.55
2022-10-12T18:49:23.940Z,4.13
2022-10-12T18:53:28.840Z,4.75
2022-10-12T18:57:36.418Z,5.10
2022-10-12T19:01:42.946Z,4.45
2022-10-12T19:05:46.500Z,4.63
2022-10-12T19:09:51.275Z,4.97
2022-10-12T19:13:55.835Z,4.75
2022-10-12T19:17:59.625Z,5.50
2022-10-12T19:22:03.258Z,5.25
2022-10-12T19:26:10.346Z,6.07
2022-10-12T19:30:14.478Z,4.90
2022-10-12T19:34:20.853Z,5.97
2022-10-12T19:38:24.136Z,5.32
2022-10-12T19:42:29.119Z,4.57
2022-10-12T19:46:32.292Z,4.60
2022-10-12T19:50:36.302Z,5.35
2022-10-12T19:54:39.824Z,5.68
2022-10-12T19:58:47.519Z,4.10
2022-10-12T20:02:51.272Z,5.95
2022-10-12T20:06:55.112Z,5.63
2022-10-12T20:10:58.190Z,6.40
2022-10-12T20:15:04.238Z,5.28
2022-10-12T20:19:08.276Z,6.35
2022-10-12T20:23:11.553Z,6.05
2022-10-12T20:27:15.238Z,5.93
2022-10-12T20:31:23.314Z,5.80
2022-10-12T20:35:26.794Z,5.85
2022-10-12T20:39:29.861Z,6.50
2022-10-12T20:43:33.812Z,5.40
2022-10-12T20:47:41.050Z,5.38
2022-10-12T20:51:46.050Z,6.28
2022-10-12T20:55:49.232Z,6.55
2022-10-12T20:59:52.370Z,5.85
2022-10-12T21:03:57.996Z,5.53
2022-10-12T21:08:01.465Z,5.95
2022-10-12T21:12:05.211Z,5.75
2022-10-12T21:16:08.927Z,5.13
2022-10-12T21:20:14.447Z,5.70
2022-10-12T21:24:18.228Z,5.35
2022-10-12T21:28:22.347Z,4.95
2022-10-12T21:32:25.979Z,5.13
2022-10-12T21:36:31.893Z,4.90
2022-10-12T21:40:35.597Z,5.68
2022-10-12T21:44:39.187Z,6.35
2022-10-12T21:48:42.924Z,5.13
2022-10-12T21:52:50.034Z,5.65
2022-10-12T21:56:53.372Z,5.90
2022-10-12T22:01:05.706Z,5.80
2022-10-12T22:05:08.956Z,6.63
2022-10-12T22:09:17.260Z,6.88
2022-10-12T22:13:20.392Z,8.07
2022-10-12T22:17:25.414Z,7.38
2022-10-12T22:21:29.481Z,6.85
2022-10-12T22:25:34.338Z,6.45
2022-10-12T22:29:37.425Z,7.85
2022-10-12T22:33:41.327Z,6.50
2022-10-12T22:37:44.431Z,5.60
2022-10-12T22:41:49.244Z,7.18
2022-10-12T22:45:52.250Z,7.18
2022-10-12T22:49:55.749Z,6.07
2022-10-12T22:54:00.111Z,6.40
2022-10-12T22:58:05.162Z,7.15
2022-10-12T23:02:08.124Z,6.97
2022-10-12T23:06:12.772Z,7.20
2022-10-12T23:10:17.982Z,6.82
2022-10-12T23:14:22.884Z,7.38
2022-10-12T23:18:25.849Z,7.03
2022-10-12T23:22:29.573Z,6.80
2022-10-12T23:26:33.245Z,7.22
2022-10-12T23:30:39.089Z,7.72
2022-10-12T23:34:42.755Z,7.82
2022-10-12T23:38:46.977Z,7.97
2022-10-12T23:42:49.939Z,7.40
2022-10-12T23:46:54.927Z,7.30
2022-10-12T23:50:58.106Z,6.38
2022-10-12T23:55:01.619Z,7.45
2022-10-12T23:59:04.681Z,7.75
